Time;durP1;ratioP1;P1;durP2;ratioP2;P2;SDS_P1;SDS_P2;PMS_P1;PMS_P2;Temp;Humidity;BMP_temperature;BMP_pressure;BME280_temperature;BME280_humidity;BME280_pressure;Samples;Min_cycle;Max_cycle;Signal;HPM_P1;HPM_P2
2023/10/17 00:01:51;;;;;;;6.30;2.60;;;;;;;23.98;39.10;100233.56;4456802;32;34460;-63
2023/10/17 00:06:46;;;;;;;7.20;3.15;;;;;;;24.06;38.97;100233.31;4485234;32;34097;-63
2023/10/17 00:10:00;;;;;;;6.93;2.90;;;;;;;23.98;39.08;100225.38;4471325;32;33814;-64
2023/10/17 00:14:45;;;;;;;7.55;2.87;;;;;;;23.95;39.24;100230.44;4472064;32;33753;-63
2023/10/17 00:17:15;;;;;;;8.00;2.80;;;;;;;23.93;39.28;100222.47;4484973;32;34145;-63
2023/10/17 00:19:45;;;;;;;5.22;2.80;;;;;;;23.93;39.32;100219.75;4485130;32;33931;-64
2023/10/17 00:22:18;;;;;;;6.37;2.78;;;;;;;23.93;39.28;100214.31;4485226;32;33879;-66
2023/10/17 00:24:47;;;;;;;5.82;2.75;;;;;;;23.92;39.30;100210.75;4484940;32;34570;-63
2023/10/17 00:27:15;;;;;;;5.17;2.63;;;;;;;23.91;39.28;100211.78;4485037;32;33148;-63
2023/10/17 00:29:43;;;;;;;5.60;3.10;;;;;;;23.93;39.28;100222.47;4485060;32;33838;-65
2023/10/17 00:32:12;;;;;;;5.97;2.35;;;;;;;23.91;39.41;100210.94;4484917;32;34897;-64
2023/10/17 00:34:40;;;;;;;5.72;2.72;;;;;;;23.90;39.44;100215.56;4484937;32;33934;-64
2023/10/17 00:37:11;;;;;;;5.60;2.45;;;;;;;23.91;39.42;100213.66;4484864;32;33139;-64
2023/10/17 00:39:39;;;;;;;7.40;2.70;;;;;;;23.90;39.36;100201.09;4484962;32;33615;-64
2023/10/17 00:44:36;;;;;;;6.37;2.78;;;;;;;23.90;39.43;100209.28;4470824;32;33396;-64
2023/10/17 00:47:08;;;;;;;5.47;2.72;;;;;;;23.90;39.47;100209.28;4484971;32;33872;-64
2023/10/17 00:49:45;;;;;;;5.70;2.78;;;;;;;23.89;39.48;100210.34;4481284;32;33726;-65
2023/10/17 00:52:18;;;;;;;6.32;2.83;;;;;;;23.88;39.51;100204.06;4460015;32;34116;-64
2023/10/17 00:54:46;;;;;;;8.05;2.83;;;;;;;23.88;39.50;100203.22;4470807;32;33946;-64
2023/10/17 00:57:15;;;;;;;5.15;2.78;;;;;;;23.87;39.55;100199.63;4470648;32;33231;-64
2023/10/17 00:59:53;;;;;;;6.30;2.40;;;;;;;23.87;39.49;100196.09;4470648;32;33839;-66
2023/10/17 01:02:24;;;;;;;5.37;2.80;;;;;;;23.86;39.51;100195.25;4484946;32;33728;-64
2023/10/17 01:04:52;;;;;;;4.97;2.83;;;;;;;23.87;39.52;100187.91;4484872;32;33476;-65
2023/10/17 01:07:34;;;;;;;8.80;2.80;;;;;;;23.85;39.51;100196.31;4484910;32;33269;-63
2023/10/17 01:10:13;;;;;;;;;;;;;;;23.87;39.55;100186.03;4485066;32;34680;-64
2023/10/17 01:13:00;;;;;;;4.55;2.67;;;;;;;23.94;39.39;100188.72;4472027;32;34246;-64
2023/10/17 01:15:28;;;;;;;4.97;2.67;;;;;;;23.86;39.54;100186.25;4484779;32;33907;-64
2023/10/17 01:18:02;;;;;;;4.85;2.55;;;;;;;23.83;39.67;100176.63;4484724;32;33409;-65
2023/10/17 01:20:32;;;;;;;6.40;2.87;;;;;;;23.83;39.73;100173.09;4471341;32;33700;-65
2023/10/17 01:23:04;;;;;;;4.70;2.65;;;;;;;23.83;39.75;100182.09;4470561;32;33960;-66
2023/10/17 01:25:35;;;;;;;5.45;2.50;;;;;;;23.82;39.75;100172.22;4484577;32;33775;-63
2023/10/17 01:28:06;;;;;;;5.43;2.62;;;;;;;23.82;39.72;100188.56;4484705;32;33511;-66
2023/10/17 01:30:34;;;;;;;6.22;2.97;;;;;;;23.82;39.78;100176.84;4484715;32;34418;-64
2023/10/17 01:33:02;;;;;;;4.97;2.60;;;;;;;23.81;39.75;100176.00;4484735;32;33700;-65
2023/10/17 01:35:30;;;;;;;4.70;2.42;;;;;;;23.81;39.77;100178.72;4484612;32;33808;-63
2023/10/17 01:37:57;;;;;;;4.32;2.40;;;;;;;23.82;39.76;100176.84;4484532;32;33083;-65
2023/10/17 01:40:27;;;;;;;6.43;2.40;;;;;;;23.81;39.79;100176.00;4484599;32;34421;-64
2023/10/17 01:42:59;;;;;;;5.40;2.75;;;;;;;23.81;39.78;100181.47;4484505;32;34982;-64
2023/10/17 01:45:29;;;;;;;5.10;2.95;;;;;;;23.81;39.87;100177.91;4484270;32;34832;-62
2023/10/17 01:47:58;;;;;;;5.00;2.55;;;;;;;23.81;39.87;100175.19;4484454;32;34397;-65
2023/10/17 01:50:26;;;;;;;5.53;2.50;;;;;;;23.81;39.89;100184.19;4484420;32;33998;-65
2023/10/17 01:52:54;;;;;;;4.25;2.20;;;;;;;23.82;39.79;100188.56;4484217;32;34637;-63
2023/10/17 01:55:25;;;;;;;5.43;2.20;;;;;;;23.83;39.84;100189.44;4484511;32;34554;-65
2023/10/17 01:57:59;;;;;;;5.35;2.40;;;;;;;23.81;39.97;100183.34;4484586;32;32950;-63
2023/10/17 02:02:55;;;;;;;4.53;2.33;;;;;;;23.79;39.95;100189.03;4484403;32;33927;-64
2023/10/17 02:05:24;;;;;;;4.68;2.35;;;;;;;23.79;39.95;100180.84;4484262;32;33459;-64
2023/10/17 02:07:52;;;;;;;5.30;2.70;;;;;;;23.80;39.97;100195.31;4484431;32;33133;-64
2023/10/17 02:10:21;;;;;;;8.35;2.28;;;;;;;23.79;39.94;100190.91;4470150;32;34829;-65
2023/10/17 02:12:49;;;;;;;6.25;2.35;;;;;;;23.79;39.95;100193.66;4483606;32;34841;-64
2023/10/17 02:15:19;;;;;;;4.50;2.20;;;;;;;23.78;39.99;100192.81;4484279;32;34543;-63
2023/10/17 02:17:47;;;;;;;4.70;2.12;;;;;;;23.78;39.98;100189.22;4470467;32;33450;-64
2023/10/17 02:20:30;;;;;;;5.62;2.60;;;;;;;23.78;40.01;100191.94;4484068;32;33973;-65
2023/10/17 02:23:01;;;;;;;6.57;2.25;;;;;;;23.78;39.94;100189.22;4483666;32;34164;-64
2023/10/17 02:25:35;;;;;;;4.55;2.35;;;;;;;23.78;40.03;100195.53;4442193;32;33876;-63
2023/10/17 02:28:02;;;;;;;6.12;2.37;;;;;;;23.78;39.90;100195.53;4468602;32;33272;-65
2023/10/17 02:30:30;;;;;;;4.37;2.35;;;;;;;23.77;39.97;100193.84;4454452;32;33979;-64
2023/10/17 02:33:00;;;;;;;6.95;3.10;;;;;;;23.78;40.01;100203.72;4468070;32;34677;-65
2023/10/17 02:35:35;;;;;;;8.23;2.35;;;;;;;23.78;40.10;100202.84;4442269;32;34765;-64
2023/10/17 02:38:05;;;;;;;5.47;2.40;;;;;;;23.78;40.13;100202.84;4468230;32;34346;-65
2023/10/17 02:40:38;;;;;;;6.00;2.72;;;;;;;23.77;40.13;100202.03;4468363;32;33965;-64
2023/10/17 02:43:12;;;;;;;4.68;2.40;;;;;;;23.77;40.12;100207.47;4442864;32;34706;-64
2023/10/17 02:45:43;;;;;;;5.45;2.40;;;;;;;23.75;40.13;100198.69;4454337;32;35019;-64
2023/10/17 02:48:23;;;;;;;6.55;2.37;;;;;;;23.75;40.15;100195.97;4468143;32;33357;-64
2023/10/17 02:51:03;;;;;;;4.60;2.22;;;;;;;23.75;40.17;100197.84;4468013;32;34755;-65
2023/10/17 02:53:34;;;;;;;;;;;;;;;23.70;40.29;100201.25;4468479;32;34932;-66
2023/10/17 02:56:18;;;;;;;3.83;2.08;;;;;;;23.78;40.22;100205.56;4468095;32;33972;-65
2023/10/17 03:01:36;;;;;;;6.68;2.30;;;;;;;23.64;40.36;100202.97;4456336;32;34622;-64
2023/10/17 03:04:08;;;;;;;5.70;2.22;;;;;;;23.63;40.42;100205.84;4441871;32;33731;-64
2023/10/17 03:06:40;;;;;;;4.57;2.40;;;;;;;23.63;40.39;100203.94;4467822;32;33785;-64
2023/10/17 03:09:31;;;;;;;4.22;2.10;;;;;;;23.62;40.48;100206.91;4453996;32;33012;-66
2023/10/17 03:17:20;;;;;;;4.18;2.17;;;;;;;23.66;40.42;100205.44;4430344;32;33581;-64
2023/10/17 03:19:48;;;;;;;3.92;2.05;;;;;;;23.68;40.39;100214.22;4467934;32;33462;-63
2023/10/17 03:22:19;;;;;;;3.92;2.33;;;;;;;23.68;40.36;100209.63;4467605;32;33934;-66
2023/10/17 03:24:47;;;;;;;5.00;2.42;;;;;;;23.67;40.43;100216.13;4480788;32;33407;-63
2023/10/17 03:27:27;;;;;;;3.95;2.30;;;;;;;23.70;40.23;100212.12;4471570;32;34765;-65
2023/10/17 03:29:54;;;;;;;4.57;2.22;;;;;;;23.68;40.35;100215.06;4485473;32;33659;-63
2023/10/17 03:32:23;;;;;;;5.35;2.45;;;;;;;23.67;40.42;100212.56;4485341;32;33860;-65
2023/10/17 03:34:56;;;;;;;4.95;2.03;;;;;;;23.64;40.42;100205.69;4485459;32;34288;-64
2023/10/17 03:40:15;;;;;;;7.25;2.50;;;;;;;23.63;40.50;100200.41;4485750;32;32735;-65
2023/10/17 03:45:24;;;;;;;3.67;1.90;;;;;;;23.60;40.55;100207.13;4485456;32;34825;-63
2023/10/17 03:47:59;;;;;;;3.50;2.00;;;;;;;23.62;40.58;100215.91;4461124;32;33883;-64
2023/10/17 03:55:51;;;;;;;5.45;2.37;;;;;;;23.66;40.55;100216.34;4473369;32;33823;-66
2023/10/17 04:00:55;;;;;;;6.75;2.40;;;;;;;23.61;40.61;100218.88;4471802;32;33320;-63
2023/10/17 04:03:25;;;;;;;7.15;2.30;;;;;;;23.63;40.61;100208.56;4485000;32;33699;-63
2023/10/17 04:11:27;;;;;;;10.85;2.40;;;;;;;23.63;40.61;100203.13;4441014;32;33080;-64
2023/10/17 04:13:56;;;;;;;4.22;2.33;;;;;;;23.60;40.63;100198.12;4484960;32;33878;-64
2023/10/17 04:16:32;;;;;;;5.40;2.20;;;;;;;23.61;40.64;100195.19;4485015;32;34777;-64
2023/10/17 04:19:01;;;;;;;5.28;2.00;;;;;;;23.61;40.62;100195.19;4484946;32;34791;-63
2023/10/17 04:21:31;;;;;;;3.90;2.20;;;;;;;23.62;40.65;100199.56;4470827;32;33541;-65
2023/10/17 04:24:03;;;;;;;3.75;1.90;;;;;;;23.63;40.66;100195.78;4463995;32;33701;-63
2023/10/17 04:26:42;;;;;;;4.35;2.20;;;;;;;23.64;40.54;100200.22;4463822;32;33038;-67
2023/10/17 04:29:13;;;;;;;5.97;2.03;;;;;;;23.64;40.58;100202.97;4468309;32;33312;-63
2023/10/17 04:31:43;;;;;;;5.85;1.98;;;;;;;23.65;40.41;100201.06;4469200;32;33781;-65
2023/10/17 04:34:26;;;;;;;9.13;2.17;;;;;;;23.68;40.50;100203.34;4472374;32;34277;-64
2023/10/17 04:36:56;;;;;;;3.62;1.83;;;;;;;23.67;40.16;100197.06;4484630;32;33933;-68
2023/10/17 04:44:39;;;;;;;5.30;1.90;;;;;;;23.59;38.92;100202.72;4484761;32;33881;-64
2023/10/17 04:47:25;;;;;;;4.93;1.75;;;;;;;23.57;39.01;100206.72;4484881;32;33498;-64
2023/10/17 04:49:53;;;;;;;4.65;1.75;;;;;;;23.52;39.08;100207.38;4484822;32;33795;-64
2023/10/17 04:52:28;;;;;;;6.70;2.25;;;;;;;23.51;39.13;100221.22;4484914;32;33355;-64
2023/10/17 04:55:11;;;;;;;3.62;1.70;;;;;;;23.46;39.21;100213.69;4459393;32;33889;-64
2023/10/17 05:03:26;;;;;;;4.00;1.65;;;;;;;23.45;39.21;100224.78;4472613;32;33386;-64
2023/10/17 05:06:45;;;;;;;5.12;2.10;;;;;;;23.45;39.21;100225.62;4459955;32;33492;-64
2023/10/17 05:09:00;;;;;;;3.40;1.90;;;;;;;23.43;39.22;100217.69;4469009;32;33077;-64
2023/10/17 06:18:57;;;;;;;5.70;2.25;;;;;;;23.21;39.30;100269.91;4456797;32;34766;-64
2023/10/17 06:24:45;;;;;;;5.15;2.08;;;;;;;23.20;39.29;100273.69;4411231;32;34594;-64
2023/10/17 06:27:51;;;;;;;5.75;2.28;;;;;;;23.20;39.25;100279.12;4457476;32;33815;-64
2023/10/17 06:35:37;;;;;;;3.45;2.30;;;;;;;23.18;39.23;100282.09;4468269;32;34780;-65
2023/10/17 06:38:05;;;;;;;3.85;2.37;;;;;;;23.15;39.22;100280.63;4468326;32;33933;-65
2023/10/17 06:40:38;;;;;;;5.25;2.30;;;;;;;23.16;39.22;100287.72;4468344;32;34032;-68
2023/10/17 06:43:49;;;;;;;3.35;1.95;;;;;;;23.16;39.19;100285.00;4468050;32;33598;-65
2023/10/17 06:46:28;;;;;;;4.18;1.80;;;;;;;23.17;39.17;100283.09;4463633;32;34582;-65
2023/10/17 06:48:58;;;;;;;4.40;2.15;;;;;;;23.17;39.11;100275.81;4467979;32;34004;-66
2023/10/17 06:51:29;;;;;;;4.18;2.30;;;;;;;23.17;39.05;100289.41;4454192;32;34644;-65
2023/10/17 06:54:05;;;;;;;8.50;2.80;;;;;;;23.15;39.01;100287.94;4467849;32;34147;-71
2023/10/17 06:56:44;;;;;;;11.45;4.30;;;;;;;23.14;38.97;100292.56;4468365;32;33966;-71
2023/10/17 06:59:24;;;;;;;7.12;4.65;;;;;;;23.14;37.37;100286.28;4456204;32;33318;-71
2023/10/17 07:02:04;;;;;;;8.05;3.78;;;;;;;23.13;35.55;100284.63;4469940;32;34467;-70
2023/10/17 07:04:33;;;;;;;7.78;3.58;;;;;;;23.09;34.52;100284.19;4456993;32;34080;-71
2023/10/17 07:07:03;;;;;;;6.50;3.00;;;;;;;23.09;33.85;100277.91;4469833;32;33865;-73
2023/10/17 07:09:37;;;;;;;6.30;3.08;;;;;;;23.05;33.50;100277.50;4483925;32;34781;-72
2023/10/17 07:12:06;;;;;;;6.78;2.90;;;;;;;23.04;33.85;100273.12;4484058;32;33854;-73
2023/10/17 07:14:37;;;;;;;6.62;3.42;;;;;;;23.03;34.42;100285.03;4485490;32;34230;-72
2023/10/17 07:17:25;;;;;;;7.57;3.53;;;;;;;23.02;34.96;100275.19;4485293;32;34735;-73
2023/10/17 07:20:01;;;;;;;5.05;3.10;;;;;;;23.02;35.57;100288.81;4485456;32;34028;-73
2023/10/17 07:22:35;;;;;;;5.97;3.08;;;;;;;23.02;35.95;100282.53;4472375;32;33450;-73
2023/10/17 07:25:14;;;;;;;6.37;3.22;;;;;;;23.01;36.22;100278.97;4484071;32;33477;-73
2023/10/17 07:27:44;;;;;;;5.85;2.58;;;;;;;23.02;36.43;100280.63;4475883;32;34508;-63
2023/10/17 07:30:13;;;;;;;6.57;3.28;;;;;;;23.00;36.57;100280.03;4472634;32;34961;-63
2023/10/17 07:32:48;;;;;;;7.55;3.67;;;;;;;23.01;36.72;100289.84;4483376;32;34756;-63
2023/10/17 07:35:23;;;;;;;5.68;2.80;;;;;;;23.01;36.75;100283.56;4482567;32;33407;-66
2023/10/17 07:37:54;;;;;;;8.85;3.05;;;;;;;23.01;36.82;100284.41;4481014;32;33489;-66
2023/10/17 07:40:33;;;;;;;6.90;3.17;;;;;;;23.02;36.88;100287.97;4485365;32;34390;-65
2023/10/17 07:43:01;;;;;;;4.55;2.50;;;;;;;23.02;36.99;100294.25;4471613;32;33558;-66
2023/10/17 07:45:41;;;;;;;5.53;2.87;;;;;;;23.03;37.04;100284.19;4484223;32;33373;-65
2023/10/17 07:48:48;;;;;;;6.12;2.85;;;;;;;23.03;37.12;100282.31;4472626;32;34102;-65
2023/10/17 07:51:04;;;;;;;6.40;3.05;;;;;;;23.05;37.19;100282.09;4456146;32;33959;-65
2023/10/17 07:53:32;;;;;;;7.10;3.25;;;;;;;23.05;37.25;100280.22;4469403;32;33870;-65
2023/10/17 07:56:12;;;;;;;5.50;2.75;;;;;;;23.05;37.32;100282.09;4469324;32;33525;-65
2023/10/17 07:58:43;;;;;;;6.35;2.92;;;;;;;23.04;37.40;100277.72;4469392;32;33886;-65
2023/10/17 08:01:14;;;;;;;5.18;2.72;;;;;;;23.04;37.46;100275.84;4469314;32;33915;-65
2023/10/17 08:04:12;;;;;;;6.32;3.15;;;;;;;23.05;37.51;100280.22;4443901;32;34127;-66
2023/10/17 08:06:40;;;;;;;5.18;2.42;;;;;;;23.06;37.55;100284.59;4469375;32;33067;-65
2023/10/17 08:12:05;;;;;;;5.35;2.90;;;;;;;23.06;37.67;100284.59;4469603;32;33995;-65
2023/10/17 08:14:42;;;;;;;6.28;2.78;;;;;;;23.06;37.70;100284.59;4455451;32;33587;-65
2023/10/17 08:17:09;;;;;;;8.68;2.90;;;;;;;23.07;37.71;100294.44;4469245;32;33033;-65
2023/10/17 08:22:27;;;;;;;4.97;2.60;;;;;;;23.06;37.80;100287.34;4469205;32;33963;-65
2023/10/17 08:24:57;;;;;;;6.80;2.95;;;;;;;23.06;37.84;100279.16;4469326;32;33886;-65
2023/10/17 08:30:01;;;;;;;5.30;2.45;;;;;;;23.07;37.91;100280.81;4455251;32;34547;-64
2023/10/17 08:32:39;;;;;;;6.07;2.80;;;;;;;23.06;37.93;100281.88;4469242;32;34338;-65
2023/10/17 08:35:20;;;;;;;5.10;2.70;;;;;;;23.07;37.98;100286.28;4469189;32;33847;-66
2023/10/17 08:37:52;;;;;;;6.78;2.67;;;;;;;23.07;37.99;100282.72;4469340;32;33179;-65
2023/10/17 08:40:32;;;;;;;5.87;2.67;;;;;;;23.08;38.02;100273.50;4468914;32;35158;-65
2023/10/17 08:43:11;;;;;;;7.75;2.58;;;;;;;23.08;38.09;100276.22;4469204;32;34672;-65
2023/10/17 08:45:39;;;;;;;4.95;2.62;;;;;;;23.07;38.12;100271.84;4443569;32;33637;-65
2023/10/17 08:48:09;;;;;;;7.03;3.00;;;;;;;23.08;38.13;100273.50;4455152;32;33589;-65
2023/10/17 08:50:40;;;;;;;5.30;3.00;;;;;;;23.07;38.17;100275.38;4481759;32;34597;-65
2023/10/17 08:55:48;;;;;;;4.97;2.67;;;;;;;23.06;38.23;100271.00;4471707;32;33835;-65
2023/10/17 08:58:32;;;;;;;5.75;2.70;;;;;;;23.08;38.24;100271.63;4484707;32;33370;-66
2023/10/17 09:01:14;;;;;;;6.53;2.42;;;;;;;23.07;38.26;100272.66;4485018;32;33999;-64
2023/10/17 09:03:46;;;;;;;6.37;2.83;;;;;;;23.08;38.29;100271.63;4484731;32;33997;-65
2023/10/17 09:12:01;;;;;;;4.20;2.20;;;;;;;23.08;38.38;100270.78;4474881;32;34097;-66
2023/10/17 09:14:37;;;;;;;5.10;2.62;;;;;;;23.06;38.42;100264.72;4472241;32;34745;-64
2023/10/17 09:17:16;;;;;;;3.95;2.25;;;;;;;23.07;38.45;100272.66;4470852;32;34547;-65
2023/10/17 09:19:46;;;;;;;4.50;2.55;;;;;;;23.06;38.47;100268.28;4460472;32;33321;-64
2023/10/17 09:22:15;;;;;;;5.32;2.70;;;;;;;23.07;38.47;100277.28;4470313;32;35233;-65
2023/10/17 09:24:49;;;;;;;5.28;2.53;;;;;;;23.06;38.50;100267.44;4484756;32;33887;-65
2023/10/17 09:27:18;;;;;;;4.70;2.40;;;;;;;23.07;38.51;100263.66;4484584;32;34733;-65
2023/10/17 09:29:55;;;;;;;5.43;2.53;;;;;;;23.08;38.53;100268.06;4470326;32;33494;-65
2023/10/17 09:32:37;;;;;;;5.00;2.50;;;;;;;23.07;38.57;100263.66;4470107;32;32848;-66
2023/10/17 09:35:13;;;;;;;4.28;2.40;;;;;;;23.09;38.59;100265.13;4470485;32;33825;-64
2023/10/17 09:37:51;;;;;;;5.43;2.50;;;;;;;23.08;38.61;100271.63;4470580;32;34168;-65
2023/10/17 09:40:33;;;;;;;4.37;2.33;;;;;;;23.08;38.61;100266.19;4484350;32;33853;-65
2023/10/17 09:43:03;;;;;;;4.47;2.35;;;;;;;23.07;38.63;100267.22;4484439;32;33957;-65
2023/10/17 09:45:33;;;;;;;5.05;2.12;;;;;;;23.07;38.65;100266.38;4484387;32;34545;-65
2023/10/17 09:48:04;;;;;;;5.97;2.50;;;;;;;23.07;38.69;100258.22;4470704;32;33726;-65
2023/10/17 09:50:35;;;;;;;4.70;2.20;;;;;;;23.08;38.70;100249.00;4484266;32;33210;-65
2023/10/17 09:53:16;;;;;;;4.53;2.45;;;;;;;23.08;38.71;100240.84;4484441;32;34713;-65
2023/10/17 09:55:48;;;;;;;4.30;2.28;;;;;;;23.07;38.74;100237.28;4457917;32;33866;-65
2023/10/17 09:58:32;;;;;;;4.30;2.33;;;;;;;23.07;38.76;100241.88;4470362;32;33760;-64
2023/10/17 10:01:25;;;;;;;5.37;2.70;;;;;;;23.08;38.75;100238.97;4470330;32;33385;-65
2023/10/17 10:03:56;;;;;;;4.43;2.58;;;;;;;23.09;38.75;100229.75;4469273;32;34078;-65
2023/10/17 10:06:30;;;;;;;3.50;2.00;;;;;;;23.07;38.79;100226.41;4484167;32;33651;-65
2023/10/17 10:09:47;;;;;;;5.30;2.33;;;;;;;23.06;38.85;100230.16;4484319;32;34142;-65
2023/10/17 10:11:58;;;;;;;5.68;2.55;;;;;;;23.08;38.85;100230.81;4480148;32;33998;-65
2023/10/17 10:14:26;;;;;;;4.55;2.42;;;;;;;23.07;38.84;100223.69;4470419;32;33871;-65
2023/10/17 10:16:55;;;;;;;4.55;2.42;;;;;;;23.08;38.85;100219.06;4483939;32;34016;-65
2023/10/17 10:19:24;;;;;;;;;;;;;;;23.07;38.88;100217.41;4484750;32;34704;-64
2023/10/17 10:21:58;;;;;;;4.37;2.15;;;;;;;23.17;38.71;100217.78;4484250;32;33389;-65
2023/10/17 10:24:31;;;;;;;4.60;2.53;;;;;;;23.09;38.84;100218.88;4484004;32;33753;-65
2023/10/17 10:27:25;;;;;;;3.90;2.10;;;;;;;23.08;38.86;100209.03;4484102;32;34743;-65
2023/10/17 10:29:55;;;;;;;5.80;2.40;;;;;;;23.08;38.91;100206.31;4483954;32;34092;-65
2023/10/17 10:32:37;;;;;;;4.78;2.10;;;;;;;23.06;38.93;100205.69;4469934;32;34382;-65
2023/10/17 10:35:05;;;;;;;5.20;2.15;;;;;;;23.09;38.94;100199.81;4469823;32;34516;-66
2023/10/17 10:37:51;;;;;;;4.33;2.20;;;;;;;23.07;38.96;100201.06;4469865;32;33840;-65
2023/10/17 10:40:26;;;;;;;5.25;2.47;;;;;;;23.09;38.95;100196.25;4483778;32;33964;-65
2023/10/17 10:42:59;;;;;;;5.12;2.25;;;;;;;23.06;38.98;100200.22;4483936;32;33979;-66
2023/10/17 10:45:40;;;;;;;5.05;2.67;;;;;;;23.07;39.00;100198.34;4483590;32;33459;-65
2023/10/17 10:48:14;;;;;;;3.97;2.22;;;;;;;23.07;39.01;100188.28;4470621;32;35001;-65
2023/10/17 10:50:46;;;;;;;3.65;1.98;;;;;;;23.06;39.04;100175.75;4469695;32;33956;-65
2023/10/17 10:53:31;;;;;;;4.18;2.28;;;;;;;23.06;39.04;100183.91;4484125;32;33543;-65
2023/10/17 10:56:03;;;;;;;4.62;2.10;;;;;;;23.07;39.04;100179.28;4483412;32;34639;-65
2023/10/17 10:58:35;;;;;;;3.97;1.90;;;;;;;23.07;39.05;100179.28;4483751;32;33574;-65
2023/10/17 11:01:07;;;;;;;3.80;2.20;;;;;;;23.06;39.07;100173.00;4483687;32;33781;-65
2023/10/17 11:03:39;;;;;;;4.75;2.25;;;;;;;23.07;39.05;100171.97;4457312;32;34625;-65
2023/10/17 11:06:09;;;;;;;4.07;2.15;;;;;;;23.07;39.07;100171.12;4483615;32;34544;-65
2023/10/17 11:08:40;;;;;;;4.28;2.08;;;;;;;23.07;39.06;100166.50;4483403;32;34860;-66
2023/10/17 11:11:13;;;;;;;4.18;2.12;;;;;;;23.06;39.08;100162.13;4469510;32;33858;-65
2023/10/17 11:13:45;;;;;;;4.65;2.37;;;;;;;23.07;39.07;100155.63;4483472;32;33640;-65
2023/10/17 11:16:20;;;;;;;3.85;2.20;;;;;;;23.08;39.10;100161.91;4483363;32;33914;-65
2023/10/17 11:18:48;;;;;;;3.37;2.10;;;;;;;23.07;39.10;100162.97;4469089;32;33164;-65
2023/10/17 11:21:21;;;;;;;3.72;2.10;;;;;;;23.07;39.10;100158.34;4483211;32;34866;-66
2023/10/17 11:24:04;;;;;;;3.58;2.10;;;;;;;23.07;39.11;100155.63;4483333;32;33519;-65
2023/10/17 11:26:33;;;;;;;4.47;1.80;;;;;;;23.08;39.10;100154.59;4469560;32;34049;-65
2023/10/17 11:29:05;;;;;;;3.72;1.95;;;;;;;23.07;39.11;100149.34;4456470;32;34135;-65
2023/10/17 11:31:32;;;;;;;3.58;1.92;;;;;;;23.07;39.10;100147.47;4483231;32;34488;-65
2023/10/17 11:34:07;;;;;;;5.43;2.22;;;;;;;23.08;39.14;100149.16;4482993;32;33955;-64
2023/10/17 11:37:02;;;;;;;4.35;2.30;;;;;;;23.07;39.14;100146.63;4483111;32;34010;-65
2023/10/17 11:39:40;;;;;;;3.75;2.00;;;;;;;23.10;39.13;100146.22;4470344;32;34726;-65
2023/10/17 11:42:09;;;;;;;3.85;2.20;;;;;;;23.09;39.14;100137.22;4482972;32;34668;-65
2023/10/17 11:44:42;;;;;;;4.55;2.30;;;;;;;23.07;39.15;100125.69;4468979;32;32920;-65
2023/10/17 11:47:26;;;;;;;4.50;2.05;;;;;;;23.06;39.19;100124.03;4459772;32;34864;-65
2023/10/17 11:49:54;;;;;;;4.55;2.03;;;;;;;23.08;39.16;100127.38;4485183;32;33811;-65
2023/10/17 11:52:23;;;;;;;2.83;1.83;;;;;;;23.08;39.17;100127.38;4485252;32;33878;-65
2023/10/17 11:55:03;;;;;;;3.70;2.13;;;;;;;23.07;39.19;100130.31;4470977;32;34253;-66
2023/10/17 11:57:32;;;;;;;4.40;2.30;;;;;;;23.09;39.18;100133.66;4485224;32;33865;-65
2023/10/17 12:00:19;;;;;;;3.65;1.80;;;;;;;23.08;39.17;100130.09;4485206;32;33996;-65
2023/10/17 12:02:48;;;;;;;3.47;1.80;;;;;;;23.08;39.20;100124.66;4485190;32;33911;-65
2023/10/17 12:05:21;;;;;;;4.62;2.55;;;;;;;23.09;39.18;100120.88;4471160;32;34388;-64
2023/10/17 12:07:53;;;;;;;3.42;1.95;;;;;;;23.07;39.20;100119.41;4471537;32;34014;-65
2023/10/17 12:10:24;;;;;;;4.40;2.12;;;;;;;23.08;39.21;100126.53;4485204;32;33805;-65
2023/10/17 12:12:52;;;;;;;;;;;;;;;23.08;39.22;100119.22;4485482;32;34198;-65
2023/10/17 12:15:23;;;;;;;4.62;2.15;;;;;;;23.19;39.04;100120.41;4485162;32;33319;-66
2023/10/17 12:17:51;;;;;;;3.90;1.98;;;;;;;23.10;39.16;100110.81;4485120;32;33738;-67
2023/10/17 12:20:24;;;;;;;4.25;2.03;;;;;;;23.07;39.23;100106.62;4470902;32;33500;-65
2023/10/17 12:22:57;;;;;;;3.03;1.80;;;;;;;23.07;39.27;100101.19;4485138;32;33699;-64
2023/10/17 12:25:25;;;;;;;2.65;1.62;;;;;;;23.07;39.28;100106.62;4485005;32;33449;-65
2023/10/17 12:27:56;;;;;;;4.80;2.33;;;;;;;23.07;39.26;100105.81;4470983;32;34573;-67
2023/10/17 12:30:28;;;;;;;4.40;1.98;;;;;;;23.07;39.26;100101.19;4484979;32;33927;-65
2023/10/17 12:32:56;;;;;;;3.42;2.17;;;;;;;23.07;39.28;100090.31;4484721;32;34531;-66
2023/10/17 12:35:27;;;;;;;3.75;2.25;;;;;;;23.07;39.30;100095.75;4484977;32;33445;-67
2023/10/17 12:38:14;;;;;;;3.15;1.80;;;;;;;23.07;39.30;100093.03;4471169;32;33475;-65
2023/10/17 12:40:42;;;;;;;3.78;2.00;;;;;;;23.08;39.30;100093.88;4485293;32;33895;-65
2023/10/17 12:43:11;;;;;;;3.35;1.98;;;;;;;23.09;39.28;100081.94;4485024;32;33791;-66
2023/10/17 12:45:39;;;;;;;3.70;1.95;;;;;;;23.09;39.28;100084.66;4484981;32;33144;-65
2023/10/17 12:48:10;;;;;;;4.22;2.20;;;;;;;23.08;39.30;100074.81;4484928;32;33653;-65
2023/10/17 12:50:44;;;;;;;3.42;1.83;;;;;;;23.08;39.31;100074.81;4470939;32;34790;-65
2023/10/17 12:53:12;;;;;;;3.55;1.80;;;;;;;23.08;39.31;100072.94;4471453;32;33598;-65
2023/10/17 12:55:40;;;;;;;3.05;1.80;;;;;;;23.07;39.31;100065.81;4470599;32;34321;-65
2023/10/17 12:58:10;;;;;;;3.62;2.00;;;;;;;23.07;39.32;100070.41;4470548;32;34804;-65
2023/10/17 13:00:39;;;;;;;3.58;1.87;;;;;;;23.09;39.31;100068.34;4484992;32;33825;-65
2023/10/17 13:03:07;;;;;;;4.05;2.00;;;;;;;23.08;39.31;100070.22;4470622;32;34023;-65
2023/10/17 13:05:37;;;;;;;3.50;1.92;;;;;;;23.09;39.30;100066.44;4484697;32;33357;-65
2023/10/17 13:08:05;;;;;;;;;;;;;;;23.07;39.32;100063.09;4485448;32;33991;-64
2023/10/17 13:10:32;;;;;;;3.90;1.92;;;;;;;23.16;39.18;100072.66;4484733;32;34713;-65
2023/10/17 13:13:00;;;;;;;4.07;1.90;;;;;;;23.09;39.29;100069.16;4484888;32;33355;-65
2023/10/17 13:15:27;;;;;;;3.37;1.80;;;;;;;23.07;39.37;100068.53;4484827;32;33375;-65
2023/10/17 13:17:55;;;;;;;3.45;1.92;;;;;;;23.05;39.38;100062.50;4484462;32;34480;-66
2023/10/17 13:20:29;;;;;;;3.45;1.85;;;;;;;23.07;39.39;100067.69;4484721;32;33707;-65
2023/10/17 13:23:17;;;;;;;4.22;1.90;;;;;;;23.06;39.39;100063.31;4484602;32;33843;-65
2023/10/17 13:25:45;;;;;;;3.22;1.80;;;;;;;23.06;39.40;100055.97;4485023;32;33507;-65
2023/10/17 13:28:13;;;;;;;3.97;1.92;;;;;;;23.06;39.42;100053.25;4470377;32;34870;-65
2023/10/17 13:30:42;;;;;;;4.43;1.80;;;;;;;23.05;39.43;100056.22;4484579;32;34390;-65
2023/10/17 13:33:09;;;;;;;4.47;1.90;;;;;;;23.05;39.43;100053.50;4484718;32;33968;-64
2023/10/17 13:35:39;;;;;;;4.03;2.03;;;;;;;23.05;39.42;100054.31;4484780;32;33446;-65
2023/10/17 13:38:07;;;;;;;3.72;2.08;;;;;;;23.04;39.43;100052.66;4470251;32;34675;-65
2023/10/17 13:40:35;;;;;;;3.00;1.92;;;;;;;23.06;39.43;100060.59;4484539;32;34856;-64
2023/10/17 13:43:04;;;;;;;2.80;1.70;;;;;;;23.06;39.42;100061.44;4484624;32;34331;-65
2023/10/17 13:45:37;;;;;;;3.08;1.75;;;;;;;23.04;39.44;100058.09;4484433;32;33451;-65
2023/10/17 13:48:05;;;;;;;2.83;1.60;;;;;;;23.06;39.42;100055.16;4484535;32;34891;-65
2023/10/17 13:50:34;;;;;;;3.45;1.90;;;;;;;23.05;39.43;100057.03;4484295;32;34115;-66
2023/10/17 13:53:09;;;;;;;3.37;1.95;;;;;;;23.06;39.42;100058.72;4484388;32;34060;-65
2023/10/17 13:55:38;;;;;;;3.62;1.80;;;;;;;23.05;39.45;100059.75;4484493;32;33615;-65
2023/10/17 13:58:06;;;;;;;2.92;1.77;;;;;;;23.05;39.46;100054.31;4484297;32;33526;-65
2023/10/17 14:00:42;;;;;;;2.87;1.58;;;;;;;23.05;39.46;100048.88;4484489;32;34540;-64
2023/10/17 14:03:14;;;;;;;2.75;1.70;;;;;;;23.05;39.44;100042.59;4484290;32;34829;-65
2023/10/17 14:05:44;;;;;;;2.67;1.60;;;;;;;23.04;39.48;100041.78;4484679;32;33070;-65
2023/10/17 14:08:13;;;;;;;3.83;1.83;;;;;;;23.04;39.50;100052.66;4483452;32;34121;-65
2023/10/17 14:10:43;;;;;;;3.12;1.85;;;;;;;23.05;39.48;100050.78;4484283;32;33646;-65
2023/10/17 14:13:12;;;;;;;;;;;;;;;23.05;39.48;100050.78;4470765;32;33913;-65
2023/10/17 14:15:40;;;;;;;3.05;1.77;;;;;;;23.14;39.32;100053.00;4484401;32;34339;-66